sensor_id;sensor_type;location;lat;lon;timestamp;P1;durP1;ratioP1;P2;durP2;ratioP2
17024;SDS011;8629;42.496;25.620;2022-12-07T00:00:07;11.47;;;8.23;;
17024;SDS011;8629;42.496;25.620;2022-12-07T00:02:38;16.10;;;11.90;;
17024;SDS011;8629;42.496;25.620;2022-12-07T00:05:07;11.97;;;9.03;;
17024;SDS011;8629;42.496;25.620;2022-12-07T00:07:35;10.63;;;7.93;;
17024;SDS011;8629;42.496;25.620;2022-12-07T00:10:04;9.70;;;7.40;;
17024;SDS011;8629;42.496;25.620;2022-12-07T00:12:35;11.73;;;8.87;;
17024;SDS011;8629;42.496;25.620;2022-12-07T00:15:03;11.93;;;9.33;;
17024;SDS011;8629;42.496;25.620;2022-12-07T00:17:33;13.93;;;8.57;;
17024;SDS011;8629;42.496;25.620;2022-12-07T00:20:01;12.37;;;8.13;;
17024;SDS011;8629;42.496;25.620;2022-12-07T00:22:30;9.70;;;7.43;;
17024;SDS011;8629;42.496;25.620;2022-12-07T00:24:59;9.33;;;7.97;;
17024;SDS011;8629;42.496;25.620;2022-12-07T00:27:26;9.97;;;7.93;;
17024;SDS011;8629;42.496;25.620;2022-12-07T00:29:54;10.43;;;7.47;;
17024;SDS011;8629;42.496;25.620;2022-12-07T00:32:24;10.03;;;8.17;;
17024;SDS011;8629;42.496;25.620;2022-12-07T00:34:56;9.67;;;7.57;;
17024;SDS011;8629;42.496;25.620;2022-12-07T00:37:24;10.83;;;8.27;;
17024;SDS011;8629;42.496;25.620;2022-12-07T00:39:52;12.90;;;8.87;;
17024;SDS011;8629;42.496;25.620;2022-12-07T00:42:19;18.20;;;11.53;;
17024;SDS011;8629;42.496;25.620;2022-12-07T00:44:47;14.47;;;9.23;;
17024;SDS011;8629;42.496;25.620;2022-12-07T00:47:15;23.00;;;14.40;;
17024;SDS011;8629;42.496;25.620;2022-12-07T00:49:47;12.97;;;9.30;;
17024;SDS011;8629;42.496;25.620;2022-12-07T00:52:16;13.77;;;10.73;;
17024;SDS011;8629;42.496;25.620;2022-12-07T00:54:45;14.63;;;10.33;;
17024;SDS011;8629;42.496;25.620;2022-12-07T00:57:13;17.20;;;11.40;;
17024;SDS011;8629;42.496;25.620;2022-12-07T00:59:41;14.90;;;10.70;;
17024;SDS011;8629;42.496;25.620;2022-12-07T01:02:14;12.40;;;9.13;;
17024;SDS011;8629;42.496;25.620;2022-12-07T01:04:41;14.97;;;9.57;;
17024;SDS011;8629;42.496;25.620;2022-12-07T01:07:10;12.47;;;10.00;;
17024;SDS011;8629;42.496;25.620;2022-12-07T01:09:41;12.70;;;8.10;;
17024;SDS011;8629;42.496;25.620;2022-12-07T01:12:09;12.73;;;9.60;;
17024;SDS011;8629;42.496;25.620;2022-12-07T01:14:37;9.90;;;8.63;;
17024;SDS011;8629;42.496;25.620;2022-12-07T01:17:05;11.53;;;8.23;;
17024;SDS011;8629;42.496;25.620;2022-12-07T01:19:33;13.67;;;8.97;;
17024;SDS011;8629;42.496;25.620;2022-12-07T01:22:01;13.20;;;7.93;;
17024;SDS011;8629;42.496;25.620;2022-12-07T01:24:29;12.63;;;8.47;;
17024;SDS011;8629;42.496;25.620;2022-12-07T01:26:58;11.83;;;8.77;;
17024;SDS011;8629;42.496;25.620;2022-12-07T01:29:26;11.40;;;8.33;;
17024;SDS011;8629;42.496;25.620;2022-12-07T01:31:53;9.93;;;7.47;;
17024;SDS011;8629;42.496;25.620;2022-12-07T01:34:27;11.07;;;7.43;;
17024;SDS011;8629;42.496;25.620;2022-12-07T01:36:55;12.20;;;8.10;;
17024;SDS011;8629;42.496;25.620;2022-12-07T01:39:23;10.97;;;7.47;;
17024;SDS011;8629;42.496;25.620;2022-12-07T01:41:53;24.10;;;14.43;;
17024;SDS011;8629;42.496;25.620;2022-12-07T01:44:23;23.97;;;14.20;;
17024;SDS011;8629;42.496;25.620;2022-12-07T01:46:52;20.33;;;12.73;;
17024;SDS011;8629;42.496;25.620;2022-12-07T01:49:22;16.37;;;11.53;;
17024;SDS011;8629;42.496;25.620;2022-12-07T01:51:57;19.27;;;12.37;;
17024;SDS011;8629;42.496;25.620;2022-12-07T01:54:30;18.30;;;12.20;;
17024;SDS011;8629;42.496;25.620;2022-12-07T01:56:58;18.10;;;10.30;;
17024;SDS011;8629;42.496;25.620;2022-12-07T01:59:28;14.40;;;8.77;;
17024;SDS011;8629;42.496;25.620;2022-12-07T02:01:57;10.63;;;8.43;;
17024;SDS011;8629;42.496;25.620;2022-12-07T02:04:25;15.40;;;9.73;;
17024;SDS011;8629;42.496;25.620;2022-12-07T02:06:53;14.07;;;9.27;;
17024;SDS011;8629;42.496;25.620;2022-12-07T02:09:22;13.80;;;9.73;;
17024;SDS011;8629;42.496;25.620;2022-12-07T02:11:51;14.97;;;8.90;;
17024;SDS011;8629;42.496;25.620;2022-12-07T02:14:20;11.20;;;7.47;;
17024;SDS011;8629;42.496;25.620;2022-12-07T02:16:54;13.13;;;9.43;;
17024;SDS011;8629;42.496;25.620;2022-12-07T02:22:31;14.30;;;9.63;;
17024;SDS011;8629;42.496;25.620;2022-12-07T02:25:22;11.33;;;6.57;;
17024;SDS011;8629;42.496;25.620;2022-12-07T02:27:58;10.53;;;7.20;;
17024;SDS011;8629;42.496;25.620;2022-12-07T02:30:32;17.60;;;12.63;;
17024;SDS011;8629;42.496;25.620;2022-12-07T02:33:03;23.40;;;15.37;;
17024;SDS011;8629;42.496;25.620;2022-12-07T02:35:34;22.10;;;14.53;;
17024;SDS011;8629;42.496;25.620;2022-12-07T02:38:04;20.50;;;14.43;;
17024;SDS011;8629;42.496;25.620;2022-12-07T02:40:38;14.20;;;11.03;;
17024;SDS011;8629;42.496;25.620;2022-12-07T02:43:09;12.13;;;8.67;;
17024;SDS011;8629;42.496;25.620;2022-12-07T02:45:43;11.13;;;8.10;;
17024;SDS011;8629;42.496;25.620;2022-12-07T02:48:13;12.07;;;9.17;;
17024;SDS011;8629;42.496;25.620;2022-12-07T02:50:44;12.60;;;8.23;;
17024;SDS011;8629;42.496;25.620;2022-12-07T02:53:29;12.40;;;8.40;;
17024;SDS011;8629;42.496;25.620;2022-12-07T02:55:59;11.83;;;9.17;;
17024;SDS011;8629;42.496;25.620;2022-12-07T02:58:32;12.00;;;7.90;;
17024;SDS011;8629;42.496;25.620;2022-12-07T03:01:11;11.33;;;7.63;;
17024;SDS011;8629;42.496;25.620;2022-12-07T03:03:43;11.27;;;9.13;;
17024;SDS011;8629;42.496;25.620;2022-12-07T03:06:16;12.90;;;9.40;;
17024;SDS011;8629;42.496;25.620;2022-12-07T03:08:50;12.07;;;9.17;;
17024;SDS011;8629;42.496;25.620;2022-12-07T03:11:22;13.13;;;8.83;;
17024;SDS011;8629;42.496;25.620;2022-12-07T03:13:54;13.27;;;9.10;;
17024;SDS011;8629;42.496;25.620;2022-12-07T03:16:28;13.27;;;9.00;;
17024;SDS011;8629;42.496;25.620;2022-12-07T03:18:59;19.93;;;14.13;;
17024;SDS011;8629;42.496;25.620;2022-12-07T03:21:31;12.10;;;9.53;;
17024;SDS011;8629;42.496;25.620;2022-12-07T03:24:03;10.40;;;8.40;;
17024;SDS011;8629;42.496;25.620;2022-12-07T03:26:52;26.50;;;15.63;;
17024;SDS011;8629;42.496;25.620;2022-12-07T03:29:22;25.20;;;15.53;;
17024;SDS011;8629;42.496;25.620;2022-12-07T03:31:58;20.60;;;13.00;;
17024;SDS011;8629;42.496;25.620;2022-12-07T03:34:31;18.00;;;11.37;;
17024;SDS011;8629;42.496;25.620;2022-12-07T03:37:02;12.23;;;8.60;;
17024;SDS011;8629;42.496;25.620;2022-12-07T03:39:33;12.50;;;7.60;;
17024;SDS011;8629;42.496;25.620;2022-12-07T03:42:05;11.67;;;9.10;;
17024;SDS011;8629;42.496;25.620;2022-12-07T03:44:33;10.97;;;8.17;;
17024;SDS011;8629;42.496;25.620;2022-12-07T03:47:06;10.33;;;7.80;;
17024;SDS011;8629;42.496;25.620;2022-12-07T03:49:39;9.17;;;7.97;;
17024;SDS011;8629;42.496;25.620;2022-12-07T03:52:12;12.57;;;9.67;;
17024;SDS011;8629;42.496;25.620;2022-12-07T03:54:45;12.50;;;8.97;;
17024;SDS011;8629;42.496;25.620;2022-12-07T03:57:16;11.47;;;8.57;;
17024;SDS011;8629;42.496;25.620;2022-12-07T03:59:44;9.60;;;7.57;;
17024;SDS011;8629;42.496;25.620;2022-12-07T04:02:22;13.27;;;9.20;;
17024;SDS011;8629;42.496;25.620;2022-12-07T04:04:50;23.13;;;15.97;;
17024;SDS011;8629;42.496;25.620;2022-12-07T04:07:18;18.03;;;14.73;;
17024;SDS011;8629;42.496;25.620;2022-12-07T04:09:45;17.20;;;12.77;;
17024;SDS011;8629;42.496;25.620;2022-12-07T04:12:13;16.00;;;12.50;;
17024;SDS011;8629;42.496;25.620;2022-12-07T04:14:42;15.20;;;12.23;;
17024;SDS011;8629;42.496;25.620;2022-12-07T04:17:10;18.10;;;12.80;;
17024;SDS011;8629;42.496;25.620;2022-12-07T04:19:40;25.53;;;15.80;;
17024;SDS011;8629;42.496;25.620;2022-12-07T04:22:09;25.07;;;16.47;;
17024;SDS011;8629;42.496;25.620;2022-12-07T04:24:36;22.07;;;12.73;;
17024;SDS011;8629;42.496;25.620;2022-12-07T04:27:05;15.90;;;11.50;;
17024;SDS011;8629;42.496;25.620;2022-12-07T04:29:33;12.53;;;9.27;;
17024;SDS011;8629;42.496;25.620;2022-12-07T04:32:01;16.57;;;9.93;;
17024;SDS011;8629;42.496;25.620;2022-12-07T04:34:28;18.43;;;11.40;;
17024;SDS011;8629;42.496;25.620;2022-12-07T04:39:40;23.53;;;18.47;;
17024;SDS011;8629;42.496;25.620;2022-12-07T04:42:13;24.17;;;17.93;;
17024;SDS011;8629;42.496;25.620;2022-12-07T04:44:41;24.83;;;17.60;;
17024;SDS011;8629;42.496;25.620;2022-12-07T04:47:11;18.40;;;15.33;;
17024;SDS011;8629;42.496;25.620;2022-12-07T04:49:38;20.13;;;13.27;;
17024;SDS011;8629;42.496;25.620;2022-12-07T04:52:05;18.73;;;11.47;;
17024;SDS011;8629;42.496;25.620;2022-12-07T04:54:34;19.27;;;14.10;;
17024;SDS011;8629;42.496;25.620;2022-12-07T04:57:01;20.93;;;14.50;;
17024;SDS011;8629;42.496;25.620;2022-12-07T04:59:28;19.73;;;14.03;;
17024;SDS011;8629;42.496;25.620;2022-12-07T05:02:00;19.00;;;14.33;;
17024;SDS011;8629;42.496;25.620;2022-12-07T05:04:28;17.00;;;12.87;;
17024;SDS011;8629;42.496;25.620;2022-12-07T05:06:57;17.63;;;13.20;;
17024;SDS011;8629;42.496;25.620;2022-12-07T05:09:25;15.73;;;11.00;;
17024;SDS011;8629;42.496;25.620;2022-12-07T05:11:55;23.03;;;15.70;;
17024;SDS011;8629;42.496;25.620;2022-12-07T05:14:23;17.30;;;12.27;;
17024;SDS011;8629;42.496;25.620;2022-12-07T05:16:51;14.70;;;11.30;;
17024;SDS011;8629;42.496;25.620;2022-12-07T05:19:19;17.23;;;12.13;;
17024;SDS011;8629;42.496;25.620;2022-12-07T05:21:48;15.40;;;11.80;;
17024;SDS011;8629;42.496;25.620;2022-12-07T05:24:17;13.53;;;10.57;;
17024;SDS011;8629;42.496;25.620;2022-12-07T05:26:44;14.20;;;11.23;;
17024;SDS011;8629;42.496;25.620;2022-12-07T05:29:14;15.80;;;11.77;;
17024;SDS011;8629;42.496;25.620;2022-12-07T05:31:42;13.63;;;9.87;;
17024;SDS011;8629;42.496;25.620;2022-12-07T05:34:10;12.20;;;8.03;;
17024;SDS011;8629;42.496;25.620;2022-12-07T05:36:38;10.07;;;7.03;;
17024;SDS011;8629;42.496;25.620;2022-12-07T05:39:05;13.50;;;7.30;;
17024;SDS011;8629;42.496;25.620;2022-12-07T05:41:33;23.10;;;13.63;;
17024;SDS011;8629;42.496;25.620;2022-12-07T05:44:19;27.03;;;19.03;;
17024;SDS011;8629;42.496;25.620;2022-12-07T05:46:46;28.90;;;20.67;;
17024;SDS011;8629;42.496;25.620;2022-12-07T05:49:13;16.97;;;12.60;;
17024;SDS011;8629;42.496;25.620;2022-12-07T05:51:40;15.43;;;11.03;;
17024;SDS011;8629;42.496;25.620;2022-12-07T05:54:07;13.70;;;9.00;;
17024;SDS011;8629;42.496;25.620;2022-12-07T05:56:34;11.87;;;8.23;;
17024;SDS011;8629;42.496;25.620;2022-12-07T05:59:00;11.97;;;8.60;;
17024;SDS011;8629;42.496;25.620;2022-12-07T06:01:46;10.33;;;7.10;;
17024;SDS011;8629;42.496;25.620;2022-12-07T06:04:13;10.23;;;7.23;;
17024;SDS011;8629;42.496;25.620;2022-12-07T06:06:40;9.73;;;7.03;;
17024;SDS011;8629;42.496;25.620;2022-12-07T06:09:07;10.23;;;7.37;;
17024;SDS011;8629;42.496;25.620;2022-12-07T06:11:35;21.97;;;14.47;;
17024;SDS011;8629;42.496;25.620;2022-12-07T06:14:19;20.57;;;15.50;;
17024;SDS011;8629;42.496;25.620;2022-12-07T06:16:47;26.57;;;19.83;;
17024;SDS011;8629;42.496;25.620;2022-12-07T06:19:14;22.77;;;16.97;;
17024;SDS011;8629;42.496;25.620;2022-12-07T06:21:41;31.37;;;22.03;;
17024;SDS011;8629;42.496;25.620;2022-12-07T06:24:08;17.73;;;13.00;;
17024;SDS011;8629;42.496;25.620;2022-12-07T06:26:37;13.17;;;9.27;;
17024;SDS011;8629;42.496;25.620;2022-12-07T06:29:04;21.23;;;12.07;;
17024;SDS011;8629;42.496;25.620;2022-12-07T06:31:31;146.50;;;86.17;;
17024;SDS011;8629;42.496;25.620;2022-12-07T06:34:00;150.30;;;90.80;;
17024;SDS011;8629;42.496;25.620;2022-12-07T06:36:28;104.77;;;65.27;;
17024;SDS011;8629;42.496;25.620;2022-12-07T06:38:55;64.50;;;43.17;;
17024;SDS011;8629;42.496;25.620;2022-12-07T06:41:22;90.30;;;55.77;;
17024;SDS011;8629;42.496;25.620;2022-12-07T06:43:50;73.23;;;47.53;;
17024;SDS011;8629;42.496;25.620;2022-12-07T06:46:17;63.13;;;45.40;;
17024;SDS011;8629;42.496;25.620;2022-12-07T06:48:44;88.90;;;54.60;;
17024;SDS011;8629;42.496;25.620;2022-12-07T06:51:12;95.50;;;62.50;;
17024;SDS011;8629;42.496;25.620;2022-12-07T06:53:39;60.03;;;41.73;;
17024;SDS011;8629;42.496;25.620;2022-12-07T06:56:07;49.10;;;35.00;;
17024;SDS011;8629;42.496;25.620;2022-12-07T06:58:34;41.07;;;30.33;;
17024;SDS011;8629;42.496;25.620;2022-12-07T07:01:01;38.77;;;26.53;;
17024;SDS011;8629;42.496;25.620;2022-12-07T07:03:28;31.90;;;26.83;;
17024;SDS011;8629;42.496;25.620;2022-12-07T07:05:55;35.63;;;26.20;;
17024;SDS011;8629;42.496;25.620;2022-12-07T07:08:23;32.13;;;26.30;;
17024;SDS011;8629;42.496;25.620;2022-12-07T07:10:50;33.57;;;25.73;;
17024;SDS011;8629;42.496;25.620;2022-12-07T07:13:17;34.63;;;25.93;;
17024;SDS011;8629;42.496;25.620;2022-12-07T07:15:44;29.33;;;22.30;;
17024;SDS011;8629;42.496;25.620;2022-12-07T07:18:11;32.57;;;26.07;;
17024;SDS011;8629;42.496;25.620;2022-12-07T07:20:38;33.43;;;27.77;;
17024;SDS011;8629;42.496;25.620;2022-12-07T07:23:06;65.37;;;43.43;;
17024;SDS011;8629;42.496;25.620;2022-12-07T07:25:34;62.43;;;39.13;;
17024;SDS011;8629;42.496;25.620;2022-12-07T07:28:01;45.67;;;29.03;;
17024;SDS011;8629;42.496;25.620;2022-12-07T07:30:29;43.07;;;26.13;;
17024;SDS011;8629;42.496;25.620;2022-12-07T07:32:56;35.83;;;23.10;;
17024;SDS011;8629;42.496;25.620;2022-12-07T07:35:24;33.87;;;22.23;;
17024;SDS011;8629;42.496;25.620;2022-12-07T07:37:51;34.73;;;23.43;;
17024;SDS011;8629;42.496;25.620;2022-12-07T07:40:18;26.47;;;17.03;;
17024;SDS011;8629;42.496;25.620;2022-12-07T07:42:48;21.73;;;15.73;;
17024;SDS011;8629;42.496;25.620;2022-12-07T07:45:15;21.63;;;14.77;;
17024;SDS011;8629;42.496;25.620;2022-12-07T07:47:42;23.53;;;14.63;;
17024;SDS011;8629;42.496;25.620;2022-12-07T07:50:09;17.70;;;12.43;;
17024;SDS011;8629;42.496;25.620;2022-12-07T07:52:36;19.30;;;12.77;;
17024;SDS011;8629;42.496;25.620;2022-12-07T07:55:04;16.97;;;11.67;;
17024;SDS011;8629;42.496;25.620;2022-12-07T07:57:33;18.43;;;11.60;;
17024;SDS011;8629;42.496;25.620;2022-12-07T08:00:02;22.47;;;15.47;;
17024;SDS011;8629;42.496;25.620;2022-12-07T08:02:30;16.13;;;11.67;;
17024;SDS011;8629;42.496;25.620;2022-12-07T08:04:56;15.20;;;12.37;;
17024;SDS011;8629;42.496;25.620;2022-12-07T08:07:23;15.23;;;10.17;;
17024;SDS011;8629;42.496;25.620;2022-12-07T08:09:50;14.00;;;9.07;;
17024;SDS011;8629;42.496;25.620;2022-12-07T08:12:17;15.13;;;9.93;;
17024;SDS011;8629;42.496;25.620;2022-12-07T08:14:45;12.17;;;9.50;;
17024;SDS011;8629;42.496;25.620;2022-12-07T08:17:13;14.67;;;10.23;;
17024;SDS011;8629;42.496;25.620;2022-12-07T08:19:40;13.57;;;9.27;;
17024;SDS011;8629;42.496;25.620;2022-12-07T08:22:06;11.00;;;9.63;;
17024;SDS011;8629;42.496;25.620;2022-12-07T08:24:33;13.80;;;10.33;;
17024;SDS011;8629;42.496;25.620;2022-12-07T08:27:01;13.20;;;9.60;;
17024;SDS011;8629;42.496;25.620;2022-12-07T08:29:28;13.80;;;9.40;;
17024;SDS011;8629;42.496;25.620;2022-12-07T08:31:55;19.97;;;11.13;;
17024;SDS011;8629;42.496;25.620;2022-12-07T08:34:24;22.80;;;14.50;;
17024;SDS011;8629;42.496;25.620;2022-12-07T08:36:51;18.07;;;9.97;;
17024;SDS011;8629;42.496;25.620;2022-12-07T08:39:18;13.27;;;8.73;;
17024;SDS011;8629;42.496;25.620;2022-12-07T08:41:48;13.67;;;9.27;;
17024;SDS011;8629;42.496;25.620;2022-12-07T08:44:15;17.53;;;10.20;;
17024;SDS011;8629;42.496;25.620;2022-12-07T08:46:44;19.03;;;11.03;;
17024;SDS011;8629;42.496;25.620;2022-12-07T08:49:13;14.13;;;9.00;;
17024;SDS011;8629;42.496;25.620;2022-12-07T08:51:44;14.80;;;10.03;;
17024;SDS011;8629;42.496;25.620;2022-12-07T08:54:12;16.83;;;9.87;;
17024;SDS011;8629;42.496;25.620;2022-12-07T08:56:41;13.97;;;10.60;;
17024;SDS011;8629;42.496;25.620;2022-12-07T08:59:08;12.40;;;9.47;;
17024;SDS011;8629;42.496;25.620;2022-12-07T09:01:35;16.67;;;10.70;;
17024;SDS011;8629;42.496;25.620;2022-12-07T09:04:02;13.03;;;9.53;;
17024;SDS011;8629;42.496;25.620;2022-12-07T09:06:29;12.33;;;8.40;;
17024;SDS011;8629;42.496;25.620;2022-12-07T09:08:59;13.87;;;9.10;;
17024;SDS011;8629;42.496;25.620;2022-12-07T09:11:29;12.47;;;7.33;;
17024;SDS011;8629;42.496;25.620;2022-12-07T09:13:55;10.40;;;7.03;;
17024;SDS011;8629;42.496;25.620;2022-12-07T09:16:22;14.93;;;8.97;;
17024;SDS011;8629;42.496;25.620;2022-12-07T09:18:49;13.37;;;8.03;;
17024;SDS011;8629;42.496;25.620;2022-12-07T09:21:16;14.77;;;9.23;;
17024;SDS011;8629;42.496;25.620;2022-12-07T09:23:43;12.60;;;7.90;;
17024;SDS011;8629;42.496;25.620;2022-12-07T09:26:13;12.03;;;8.50;;
17024;SDS011;8629;42.496;25.620;2022-12-07T09:28:40;14.93;;;8.30;;
17024;SDS011;8629;42.496;25.620;2022-12-07T09:31:07;20.17;;;10.13;;
17024;SDS011;8629;42.496;25.620;2022-12-07T09:33:34;12.77;;;8.67;;
17024;SDS011;8629;42.496;25.620;2022-12-07T09:36:03;14.07;;;7.70;;
17024;SDS011;8629;42.496;25.620;2022-12-07T09:38:30;17.53;;;9.93;;
17024;SDS011;8629;42.496;25.620;2022-12-07T09:40:57;19.63;;;10.23;;
17024;SDS011;8629;42.496;25.620;2022-12-07T09:43:33;17.30;;;8.80;;
17024;SDS011;8629;42.496;25.620;2022-12-07T09:46:01;14.27;;;8.70;;
17024;SDS011;8629;42.496;25.620;2022-12-07T09:48:29;12.97;;;8.77;;
17024;SDS011;8629;42.496;25.620;2022-12-07T09:51:10;13.40;;;7.93;;
17024;SDS011;8629;42.496;25.620;2022-12-07T09:53:40;11.17;;;7.07;;
17024;SDS011;8629;42.496;25.620;2022-12-07T09:56:08;14.13;;;8.03;;
17024;SDS011;8629;42.496;25.620;2022-12-07T09:58:37;14.77;;;8.20;;
17024;SDS011;8629;42.496;25.620;2022-12-07T10:01:08;12.27;;;7.93;;
17024;SDS011;8629;42.496;25.620;2022-12-07T10:03:38;12.33;;;9.57;;
17024;SDS011;8629;42.496;25.620;2022-12-07T10:06:06;12.50;;;8.60;;
17024;SDS011;8629;42.496;25.620;2022-12-07T10:08:33;20.17;;;10.07;;
17024;SDS011;8629;42.496;25.620;2022-12-07T10:11:01;9.67;;;8.33;;
17024;SDS011;8629;42.496;25.620;2022-12-07T10:13:34;15.50;;;7.93;;
17024;SDS011;8629;42.496;25.620;2022-12-07T10:16:03;13.03;;;7.93;;
17024;SDS011;8629;42.496;25.620;2022-12-07T10:18:32;13.03;;;7.83;;
17024;SDS011;8629;42.496;25.620;2022-12-07T10:21:11;11.73;;;8.13;;
17024;SDS011;8629;42.496;25.620;2022-12-07T10:23:40;9.03;;;7.67;;
17024;SDS011;8629;42.496;25.620;2022-12-07T10:26:21;11.63;;;7.87;;
17024;SDS011;8629;42.496;25.620;2022-12-07T10:28:53;14.17;;;7.17;;
17024;SDS011;8629;42.496;25.620;2022-12-07T10:31:23;10.70;;;7.87;;
17024;SDS011;8629;42.496;25.620;2022-12-07T10:33:50;10.40;;;7.60;;
17024;SDS011;8629;42.496;25.620;2022-12-07T10:36:20;13.00;;;9.87;;
17024;SDS011;8629;42.496;25.620;2022-12-07T10:38:49;13.53;;;7.17;;
17024;SDS011;8629;42.496;25.620;2022-12-07T10:41:32;11.10;;;7.50;;
17024;SDS011;8629;42.496;25.620;2022-12-07T10:43:59;10.23;;;6.97;;
17024;SDS011;8629;42.496;25.620;2022-12-07T10:46:32;11.33;;;7.80;;
17024;SDS011;8629;42.496;25.620;2022-12-07T10:49:13;12.63;;;7.50;;
17024;SDS011;8629;42.496;25.620;2022-12-07T10:51:54;9.77;;;7.80;;
17024;SDS011;8629;42.496;25.620;2022-12-07T10:54:25;12.43;;;7.30;;
17024;SDS011;8629;42.496;25.620;2022-12-07T10:57:14;10.20;;;7.87;;
17024;SDS011;8629;42.496;25.620;2022-12-07T10:59:58;10.93;;;6.90;;
17024;SDS011;8629;42.496;25.620;2022-12-07T11:02:44;12.70;;;7.90;;
17024;SDS011;8629;42.496;25.620;2022-12-07T11:05:26;12.30;;;8.93;;
17024;SDS011;8629;42.496;25.620;2022-12-07T11:07:58;12.47;;;7.43;;
17024;SDS011;8629;42.496;25.620;2022-12-07T11:10:30;9.60;;;7.10;;
17024;SDS011;8629;42.496;25.620;2022-12-07T11:13:10;9.83;;;6.77;;
17024;SDS011;8629;42.496;25.620;2022-12-07T11:15:53;11.23;;;7.20;;
17024;SDS011;8629;42.496;25.620;2022-12-07T11:18:28;11.93;;;8.00;;
17024;SDS011;8629;42.496;25.620;2022-12-07T11:20:59;9.07;;;7.53;;
17024;SDS011;8629;42.496;25.620;2022-12-07T11:23:36;11.90;;;9.13;;
17024;SDS011;8629;42.496;25.620;2022-12-07T11:26:11;10.67;;;6.93;;
17024;SDS011;8629;42.496;25.620;2022-12-07T11:28:46;40.43;;;22.90;;
17024;SDS011;8629;42.496;25.620;2022-12-07T11:31:24;15.10;;;11.70;;
17024;SDS011;8629;42.496;25.620;2022-12-07T11:33:59;17.90;;;8.33;;
17024;SDS011;8629;42.496;25.620;2022-12-07T11:36:36;12.33;;;8.17;;
17024;SDS011;8629;42.496;25.620;2022-12-07T11:39:07;10.80;;;7.70;;
17024;SDS011;8629;42.496;25.620;2022-12-07T11:41:38;9.20;;;7.07;;
17024;SDS011;8629;42.496;25.620;2022-12-07T11:44:07;12.93;;;9.50;;
17024;SDS011;8629;42.496;25.620;2022-12-07T11:46:44;12.63;;;8.90;;
17024;SDS011;8629;42.496;25.620;2022-12-07T11:49:19;12.00;;;7.63;;
17024;SDS011;8629;42.496;25.620;2022-12-07T11:51:48;12.40;;;8.17;;
17024;SDS011;8629;42.496;25.620;2022-12-07T11:54:16;20.07;;;9.10;;
17024;SDS011;8629;42.496;25.620;2022-12-07T11:56:45;15.33;;;9.53;;
17024;SDS011;8629;42.496;25.620;2022-12-07T11:59:16;12.80;;;10.03;;
17024;SDS011;8629;42.496;25.620;2022-12-07T12:01:48;27.57;;;18.80;;
17024;SDS011;8629;42.496;25.620;2022-12-07T12:04:34;23.40;;;14.37;;
17024;SDS011;8629;42.496;25.620;2022-12-07T12:07:06;16.07;;;11.87;;
17024;SDS011;8629;42.496;25.620;2022-12-07T12:09:33;16.83;;;11.90;;
17024;SDS011;8629;42.496;25.620;2022-12-07T12:12:13;22.37;;;16.23;;
17024;SDS011;8629;42.496;25.620;2022-12-07T12:15:03;19.53;;;14.13;;
17024;SDS011;8629;42.496;25.620;2022-12-07T12:17:51;15.13;;;13.20;;
17024;SDS011;8629;42.496;25.620;2022-12-07T12:20:39;24.23;;;14.53;;
17024;SDS011;8629;42.496;25.620;2022-12-07T12:23:10;21.40;;;15.23;;
17024;SDS011;8629;42.496;25.620;2022-12-07T12:25:40;20.70;;;14.77;;
17024;SDS011;8629;42.496;25.620;2022-12-07T12:28:18;20.40;;;13.80;;
17024;SDS011;8629;42.496;25.620;2022-12-07T12:30:47;17.13;;;13.73;;
17024;SDS011;8629;42.496;25.620;2022-12-07T12:33:31;25.10;;;13.37;;
17024;SDS011;8629;42.496;25.620;2022-12-07T12:39:11;20.63;;;15.03;;
17024;SDS011;8629;42.496;25.620;2022-12-07T12:41:53;23.20;;;15.80;;
17024;SDS011;8629;42.496;25.620;2022-12-07T12:47:40;28.33;;;15.23;;
17024;SDS011;8629;42.496;25.620;2022-12-07T12:50:30;23.73;;;16.93;;
17024;SDS011;8629;42.496;25.620;2022-12-07T12:53:02;24.17;;;14.30;;
17024;SDS011;8629;42.496;25.620;2022-12-07T12:55:47;24.27;;;16.63;;
17024;SDS011;8629;42.496;25.620;2022-12-07T12:58:35;24.23;;;16.33;;
17024;SDS011;8629;42.496;25.620;2022-12-07T13:04:24;18.90;;;14.27;;
17024;SDS011;8629;42.496;25.620;2022-12-07T13:10:35;26.57;;;18.93;;
17024;SDS011;8629;42.496;25.620;2022-12-07T13:25:10;24.50;;;15.27;;
17024;SDS011;8629;42.496;25.620;2022-12-07T13:27:39;22.40;;;14.93;;
17024;SDS011;8629;42.496;25.620;2022-12-07T13:30:13;20.57;;;14.70;;
17024;SDS011;8629;42.496;25.620;2022-12-07T13:32:40;26.00;;;19.30;;
17024;SDS011;8629;42.496;25.620;2022-12-07T13:38:00;37.40;;;28.27;;
17024;SDS011;8629;42.496;25.620;2022-12-07T13:40:29;21.63;;;15.57;;
17024;SDS011;8629;42.496;25.620;2022-12-07T13:42:56;23.13;;;15.67;;
17024;SDS011;8629;42.496;25.620;2022-12-07T13:45:26;24.97;;;17.07;;
17024;SDS011;8629;42.496;25.620;2022-12-07T13:48:10;21.77;;;14.53;;
17024;SDS011;8629;42.496;25.620;2022-12-07T13:50:41;25.80;;;19.30;;
17024;SDS011;8629;42.496;25.620;2022-12-07T13:53:11;17.73;;;14.17;;
17024;SDS011;8629;42.496;25.620;2022-12-07T13:55:44;23.53;;;17.53;;
17024;SDS011;8629;42.496;25.620;2022-12-07T13:58:12;36.30;;;22.47;;
17024;SDS011;8629;42.496;25.620;2022-12-07T14:00:40;54.17;;;33.37;;
17024;SDS011;8629;42.496;25.620;2022-12-07T14:03:22;30.67;;;20.10;;
17024;SDS011;8629;42.496;25.620;2022-12-07T14:06:02;20.27;;;12.47;;
17024;SDS011;8629;42.496;25.620;2022-12-07T14:08:31;17.37;;;12.33;;
17024;SDS011;8629;42.496;25.620;2022-12-07T14:10:58;17.73;;;12.03;;
17024;SDS011;8629;42.496;25.620;2022-12-07T14:13:27;25.47;;;17.37;;
17024;SDS011;8629;42.496;25.620;2022-12-07T14:15:58;29.00;;;19.83;;
17024;SDS011;8629;42.496;25.620;2022-12-07T14:18:27;49.80;;;30.90;;
17024;SDS011;8629;42.496;25.620;2022-12-07T14:21:04;47.70;;;30.23;;
17024;SDS011;8629;42.496;25.620;2022-12-07T14:23:32;76.27;;;49.30;;
17024;SDS011;8629;42.496;25.620;2022-12-07T14:26:05;46.47;;;33.00;;
17024;SDS011;8629;42.496;25.620;2022-12-07T14:28:34;35.63;;;20.13;;
17024;SDS011;8629;42.496;25.620;2022-12-07T14:31:07;46.80;;;26.73;;
17024;SDS011;8629;42.496;25.620;2022-12-07T14:33:38;43.07;;;28.17;;
17024;SDS011;8629;42.496;25.620;2022-12-07T14:36:05;50.40;;;32.33;;
17024;SDS011;8629;42.496;25.620;2022-12-07T14:38:34;49.07;;;37.37;;
17024;SDS011;8629;42.496;25.620;2022-12-07T14:41:03;33.93;;;19.80;;
17024;SDS011;8629;42.496;25.620;2022-12-07T14:43:47;22.23;;;15.17;;
17024;SDS011;8629;42.496;25.620;2022-12-07T14:46:23;26.73;;;18.73;;
17024;SDS011;8629;42.496;25.620;2022-12-07T14:48:50;35.10;;;25.97;;
17024;SDS011;8629;42.496;25.620;2022-12-07T14:51:17;37.70;;;26.63;;
17024;SDS011;8629;42.496;25.620;2022-12-07T14:53:45;28.47;;;19.93;;
17024;SDS011;8629;42.496;25.620;2022-12-07T14:56:12;45.03;;;28.03;;
17024;SDS011;8629;42.496;25.620;2022-12-07T14:58:39;34.73;;;24.80;;
17024;SDS011;8629;42.496;25.620;2022-12-07T15:01:06;30.93;;;18.43;;
17024;SDS011;8629;42.496;25.620;2022-12-07T15:03:34;70.87;;;36.17;;
17024;SDS011;8629;42.496;25.620;2022-12-07T15:06:04;42.40;;;24.27;;
17024;SDS011;8629;42.496;25.620;2022-12-07T15:08:31;28.07;;;18.33;;
17024;SDS011;8629;42.496;25.620;2022-12-07T15:10:58;21.03;;;15.13;;
17024;SDS011;8629;42.496;25.620;2022-12-07T15:13:25;17.63;;;12.93;;
17024;SDS011;8629;42.496;25.620;2022-12-07T15:16:10;20.33;;;11.73;;
17024;SDS011;8629;42.496;25.620;2022-12-07T15:18:39;17.60;;;13.13;;
17024;SDS011;8629;42.496;25.620;2022-12-07T15:21:09;20.10;;;13.60;;